sensor_id;sensor_type;location;lat;lon;timestamp;temperature;humidity
29431;DHT22;16404;49.902;10.074;2024-03-17T00:02:32;8.60;56.60
29431;DHT22;16404;49.902;10.074;2024-03-17T00:05:17;8.60;56.40
29431;DHT22;16404;49.902;10.074;2024-03-17T00:08:04;8.60;56.40
29431;DHT22;16404;49.902;10.074;2024-03-17T00:10:56;8.60;56.40
29431;DHT22;16404;49.902;10.074;2024-03-17T00:13:40;8.50;56.20
29431;DHT22;16404;49.902;10.074;2024-03-17T00:16:24;8.50;56.20
29431;DHT22;16404;49.902;10.074;2024-03-17T00:19:09;8.60;56.20
29431;DHT22;16404;49.902;10.074;2024-03-17T00:21:54;8.50;56.30
29431;DHT22;16404;49.902;10.074;2024-03-17T00:24:38;8.60;56.30
29431;DHT22;16404;49.902;10.074;2024-03-17T00:27:23;8.60;56.10
29431;DHT22;16404;49.902;10.074;2024-03-17T00:30:08;8.60;56.30
29431;DHT22;16404;49.902;10.074;2024-03-17T00:32:59;8.60;56.40
29431;DHT22;16404;49.902;10.074;2024-03-17T00:35:44;8.70;56.50
29431;DHT22;16404;49.902;10.074;2024-03-17T00:38:29;8.60;56.70
29431;DHT22;16404;49.902;10.074;2024-03-17T00:41:13;8.60;57.10
29431;DHT22;16404;49.902;10.074;2024-03-17T00:43:58;8.70;57.60
29431;DHT22;16404;49.902;10.074;2024-03-17T00:46:45;8.70;56.90
29431;DHT22;16404;49.902;10.074;2024-03-17T00:49:29;8.70;57.00
29431;DHT22;16404;49.902;10.074;2024-03-17T00:52:14;8.80;57.00
29431;DHT22;16404;49.902;10.074;2024-03-17T00:54:59;8.80;56.90
29431;DHT22;16404;49.902;10.074;2024-03-17T00:57:43;8.70;57.20
29431;DHT22;16404;49.902;10.074;2024-03-17T01:00:28;8.70;57.40
29431;DHT22;16404;49.902;10.074;2024-03-17T01:03:13;8.70;57.50
29431;DHT22;16404;49.902;10.074;2024-03-17T01:05:58;8.60;57.70
29431;DHT22;16404;49.902;10.074;2024-03-17T01:08:42;8.70;57.60
29431;DHT22;16404;49.902;10.074;2024-03-17T01:11:27;8.60;57.40
29431;DHT22;16404;49.902;10.074;2024-03-17T01:14:12;8.60;57.60
29431;DHT22;16404;49.902;10.074;2024-03-17T01:16:58;8.60;57.70
29431;DHT22;16404;49.902;10.074;2024-03-17T01:19:43;8.60;57.70
29431;DHT22;16404;49.902;10.074;2024-03-17T01:22:27;8.70;57.80
29431;DHT22;16404;49.902;10.074;2024-03-17T01:25:13;8.70;57.70
29431;DHT22;16404;49.902;10.074;2024-03-17T01:27:57;8.70;57.60
29431;DHT22;16404;49.902;10.074;2024-03-17T01:30:42;8.70;57.50
29431;DHT22;16404;49.902;10.074;2024-03-17T01:33:26;8.70;57.40
29431;DHT22;16404;49.902;10.074;2024-03-17T01:36:11;8.70;57.10
29431;DHT22;16404;49.902;10.074;2024-03-17T01:38:56;8.60;56.90
29431;DHT22;16404;49.902;10.074;2024-03-17T01:41:41;8.60;56.90
29431;DHT22;16404;49.902;10.074;2024-03-17T01:44:29;8.60;56.80
29431;DHT22;16404;49.902;10.074;2024-03-17T01:47:15;8.50;56.60
29431;DHT22;16404;49.902;10.074;2024-03-17T01:49:59;8.50;56.60
29431;DHT22;16404;49.902;10.074;2024-03-17T01:52:46;8.50;56.50
29431;DHT22;16404;49.902;10.074;2024-03-17T01:55:33;8.50;56.40
29431;DHT22;16404;49.902;10.074;2024-03-17T01:58:20;8.50;56.40
29431;DHT22;16404;49.902;10.074;2024-03-17T02:01:04;8.40;56.40
29431;DHT22;16404;49.902;10.074;2024-03-17T02:03:49;8.40;56.40
29431;DHT22;16404;49.902;10.074;2024-03-17T02:06:34;8.30;56.40
29431;DHT22;16404;49.902;10.074;2024-03-17T02:09:18;8.20;56.50
29431;DHT22;16404;49.902;10.074;2024-03-17T02:12:03;8.20;56.50
29431;DHT22;16404;49.902;10.074;2024-03-17T02:14:48;8.20;56.30
29431;DHT22;16404;49.902;10.074;2024-03-17T02:17:33;8.10;56.20
29431;DHT22;16404;49.902;10.074;2024-03-17T02:20:17;8.10;56.20
29431;DHT22;16404;49.902;10.074;2024-03-17T02:23:02;8.10;56.20
29431;DHT22;16404;49.902;10.074;2024-03-17T02:25:46;8.10;55.90
29431;DHT22;16404;49.902;10.074;2024-03-17T02:28:42;8.00;55.90
29431;DHT22;16404;49.902;10.074;2024-03-17T02:31:26;7.90;56.00
29431;DHT22;16404;49.902;10.074;2024-03-17T02:34:11;7.90;55.90
29431;DHT22;16404;49.902;10.074;2024-03-17T02:36:55;7.80;55.90
29431;DHT22;16404;49.902;10.074;2024-03-17T02:39:41;7.70;56.00
29431;DHT22;16404;49.902;10.074;2024-03-17T02:42:25;7.70;56.00
29431;DHT22;16404;49.902;10.074;2024-03-17T02:45:10;7.70;55.90
29431;DHT22;16404;49.902;10.074;2024-03-17T02:47:56;7.70;55.90
29431;DHT22;16404;49.902;10.074;2024-03-17T02:50:40;7.60;56.40
29431;DHT22;16404;49.902;10.074;2024-03-17T02:53:25;7.50;56.10
29431;DHT22;16404;49.902;10.074;2024-03-17T02:56:09;7.40;56.20
29431;DHT22;16404;49.902;10.074;2024-03-17T02:58:54;7.40;56.30
29431;DHT22;16404;49.902;10.074;2024-03-17T03:01:38;7.30;56.40
29431;DHT22;16404;49.902;10.074;2024-03-17T03:04:24;7.20;56.40
29431;DHT22;16404;49.902;10.074;2024-03-17T03:07:09;7.20;56.40
29431;DHT22;16404;49.902;10.074;2024-03-17T03:09:53;7.20;56.20
29431;DHT22;16404;49.902;10.074;2024-03-17T03:12:38;7.20;56.20
29431;DHT22;16404;49.902;10.074;2024-03-17T03:15:22;7.10;56.30
29431;DHT22;16404;49.902;10.074;2024-03-17T03:18:07;7.00;56.30
29431;DHT22;16404;49.902;10.074;2024-03-17T03:20:51;6.90;56.60
29431;DHT22;16404;49.902;10.074;2024-03-17T03:23:36;6.90;57.00
29431;DHT22;16404;49.902;10.074;2024-03-17T03:26:21;6.90;57.00
29431;DHT22;16404;49.902;10.074;2024-03-17T03:29:05;6.90;56.80
29431;DHT22;16404;49.902;10.074;2024-03-17T03:31:50;6.90;56.90
29431;DHT22;16404;49.902;10.074;2024-03-17T03:34:34;6.80;57.00
29431;DHT22;16404;49.902;10.074;2024-03-17T03:37:19;6.80;56.90
29431;DHT22;16404;49.902;10.074;2024-03-17T03:40:04;6.70;56.80
29431;DHT22;16404;49.902;10.074;2024-03-17T03:43:00;6.70;56.70
29431;DHT22;16404;49.902;10.074;2024-03-17T03:45:45;6.60;56.50
29431;DHT22;16404;49.902;10.074;2024-03-17T03:48:29;6.60;56.60
29431;DHT22;16404;49.902;10.074;2024-03-17T03:51:14;6.60;56.60
29431;DHT22;16404;49.902;10.074;2024-03-17T03:53:58;6.60;56.40
29431;DHT22;16404;49.902;10.074;2024-03-17T03:56:43;6.60;56.40
29431;DHT22;16404;49.902;10.074;2024-03-17T03:59:28;6.50;56.60
29431;DHT22;16404;49.902;10.074;2024-03-17T04:02:13;6.60;56.70
29431;DHT22;16404;49.902;10.074;2024-03-17T04:04:58;6.60;56.30
29431;DHT22;16404;49.902;10.074;2024-03-17T04:07:43;6.60;56.40
29431;DHT22;16404;49.902;10.074;2024-03-17T04:10:30;6.50;56.70
29431;DHT22;16404;49.902;10.074;2024-03-17T04:13:14;6.40;57.00
29431;DHT22;16404;49.902;10.074;2024-03-17T04:16:00;6.40;57.10
29431;DHT22;16404;49.902;10.074;2024-03-17T04:18:45;6.30;57.00
29431;DHT22;16404;49.902;10.074;2024-03-17T04:21:29;6.40;57.10
29431;DHT22;16404;49.902;10.074;2024-03-17T04:24:14;6.40;57.00
29431;DHT22;16404;49.902;10.074;2024-03-17T04:26:59;6.40;57.20
29431;DHT22;16404;49.902;10.074;2024-03-17T04:29:46;6.40;57.40
29431;DHT22;16404;49.902;10.074;2024-03-17T04:32:33;6.40;57.60
29431;DHT22;16404;49.902;10.074;2024-03-17T04:35:17;6.40;57.70
29431;DHT22;16404;49.902;10.074;2024-03-17T04:38:02;6.40;57.60
29431;DHT22;16404;49.902;10.074;2024-03-17T04:40:46;6.40;57.70
29431;DHT22;16404;49.902;10.074;2024-03-17T04:43:32;6.50;57.80
29431;DHT22;16404;49.902;10.074;2024-03-17T04:46:17;6.50;57.70
29431;DHT22;16404;49.902;10.074;2024-03-17T04:49:01;6.60;57.70
29431;DHT22;16404;49.902;10.074;2024-03-17T04:51:47;6.60;57.70
29431;DHT22;16404;49.902;10.074;2024-03-17T04:54:32;6.60;57.80
29431;DHT22;16404;49.902;10.074;2024-03-17T04:57:16;6.70;57.90
29431;DHT22;16404;49.902;10.074;2024-03-17T05:00:02;6.80;58.10
29431;DHT22;16404;49.902;10.074;2024-03-17T05:02:50;6.80;58.20
29431;DHT22;16404;49.902;10.074;2024-03-17T05:05:34;6.90;58.50
29431;DHT22;16404;49.902;10.074;2024-03-17T05:08:19;6.90;58.60
29431;DHT22;16404;49.902;10.074;2024-03-17T05:11:05;6.90;58.60
29431;DHT22;16404;49.902;10.074;2024-03-17T05:13:50;6.90;58.50
29431;DHT22;16404;49.902;10.074;2024-03-17T05:16:34;6.90;58.70
29431;DHT22;16404;49.902;10.074;2024-03-17T05:19:19;7.00;58.60
29431;DHT22;16404;49.902;10.074;2024-03-17T05:22:03;7.10;58.40
29431;DHT22;16404;49.902;10.074;2024-03-17T05:24:48;7.10;58.60
29431;DHT22;16404;49.902;10.074;2024-03-17T05:27:33;7.10;58.60
29431;DHT22;16404;49.902;10.074;2024-03-17T05:30:17;7.10;58.50
29431;DHT22;16404;49.902;10.074;2024-03-17T05:33:02;7.10;58.50
29431;DHT22;16404;49.902;10.074;2024-03-17T05:35:58;7.20;58.90
29431;DHT22;16404;49.902;10.074;2024-03-17T05:38:42;7.20;59.10
29431;DHT22;16404;49.902;10.074;2024-03-17T05:41:27;7.30;59.00
29431;DHT22;16404;49.902;10.074;2024-03-17T05:44:12;7.30;59.00
29431;DHT22;16404;49.902;10.074;2024-03-17T05:46:56;7.40;59.00
29431;DHT22;16404;49.902;10.074;2024-03-17T05:49:42;7.40;58.70
29431;DHT22;16404;49.902;10.074;2024-03-17T05:52:26;7.40;58.90
29431;DHT22;16404;49.902;10.074;2024-03-17T05:55:11;7.50;58.80
29431;DHT22;16404;49.902;10.074;2024-03-17T05:57:55;7.50;58.80
29431;DHT22;16404;49.902;10.074;2024-03-17T06:00:40;7.50;58.70
29431;DHT22;16404;49.902;10.074;2024-03-17T06:03:25;7.60;58.50
29431;DHT22;16404;49.902;10.074;2024-03-17T06:06:10;7.60;59.10
29431;DHT22;16404;49.902;10.074;2024-03-17T06:08:55;7.60;59.30
29431;DHT22;16404;49.902;10.074;2024-03-17T06:11:39;7.60;58.80
29431;DHT22;16404;49.902;10.074;2024-03-17T06:14:24;7.60;58.90
29431;DHT22;16404;49.902;10.074;2024-03-17T06:17:09;7.70;59.00
29431;DHT22;16404;49.902;10.074;2024-03-17T06:19:53;7.70;58.90
29431;DHT22;16404;49.902;10.074;2024-03-17T06:22:38;7.70;59.00
29431;DHT22;16404;49.902;10.074;2024-03-17T06:25:23;7.70;59.10
29431;DHT22;16404;49.902;10.074;2024-03-17T06:28:11;7.80;59.10
29431;DHT22;16404;49.902;10.074;2024-03-17T06:30:59;7.90;59.10
29431;DHT22;16404;49.902;10.074;2024-03-17T06:33:43;7.90;59.20
29431;DHT22;16404;49.902;10.074;2024-03-17T06:36:28;8.00;59.60
29431;DHT22;16404;49.902;10.074;2024-03-17T06:39:12;8.00;59.80
29431;DHT22;16404;49.902;10.074;2024-03-17T06:41:59;8.10;59.80
29431;DHT22;16404;49.902;10.074;2024-03-17T06:44:44;8.20;59.70
29431;DHT22;16404;49.902;10.074;2024-03-17T06:47:29;8.20;59.80
29431;DHT22;16404;49.902;10.074;2024-03-17T06:50:13;8.40;60.20
29431;DHT22;16404;49.902;10.074;2024-03-17T06:52:59;8.50;60.30
29431;DHT22;16404;49.902;10.074;2024-03-17T06:55:43;8.60;60.00
29431;DHT22;16404;49.902;10.074;2024-03-17T06:58:28;8.70;59.60
29431;DHT22;16404;49.902;10.074;2024-03-17T07:01:13;8.80;59.90
29431;DHT22;16404;49.902;10.074;2024-03-17T07:03:59;8.90;60.00
29431;DHT22;16404;49.902;10.074;2024-03-17T07:06:43;9.00;60.00
29431;DHT22;16404;49.902;10.074;2024-03-17T07:09:28;9.20;59.90
29431;DHT22;16404;49.902;10.074;2024-03-17T07:12:12;9.40;59.80
29431;DHT22;16404;49.902;10.074;2024-03-17T07:14:57;9.50;59.50
29431;DHT22;16404;49.902;10.074;2024-03-17T07:17:42;9.60;59.30
29431;DHT22;16404;49.902;10.074;2024-03-17T07:20:26;9.70;59.10
29431;DHT22;16404;49.902;10.074;2024-03-17T07:23:11;9.80;59.10
29431;DHT22;16404;49.902;10.074;2024-03-17T07:25:57;9.90;59.10
29431;DHT22;16404;49.902;10.074;2024-03-17T07:28:43;10.10;59.10
29431;DHT22;16404;49.902;10.074;2024-03-17T07:31:28;10.20;59.00
29431;DHT22;16404;49.902;10.074;2024-03-17T07:34:13;10.40;58.80
29431;DHT22;16404;49.902;10.074;2024-03-17T07:36:58;10.60;58.60
29431;DHT22;16404;49.902;10.074;2024-03-17T07:39:44;10.80;58.50
29431;DHT22;16404;49.902;10.074;2024-03-17T07:42:32;11.00;58.90
29431;DHT22;16404;49.902;10.074;2024-03-17T07:45:16;11.10;58.10
29431;DHT22;16404;49.902;10.074;2024-03-17T07:48:01;11.30;58.00
29431;DHT22;16404;49.902;10.074;2024-03-17T07:50:54;11.50;57.90
29431;DHT22;16404;49.902;10.074;2024-03-17T07:53:40;11.60;57.80
29431;DHT22;16404;49.902;10.074;2024-03-17T07:56:25;11.80;57.70
29431;DHT22;16404;49.902;10.074;2024-03-17T07:59:10;12.00;57.50
29431;DHT22;16404;49.902;10.074;2024-03-17T08:01:57;12.20;57.20
29431;DHT22;16404;49.902;10.074;2024-03-17T08:04:41;12.40;56.90
29431;DHT22;16404;49.902;10.074;2024-03-17T08:07:26;12.60;56.70
29431;DHT22;16404;49.902;10.074;2024-03-17T08:10:11;12.80;56.50
29431;DHT22;16404;49.902;10.074;2024-03-17T08:12:56;13.00;56.10
29431;DHT22;16404;49.902;10.074;2024-03-17T08:15:41;13.10;55.60
29431;DHT22;16404;49.902;10.074;2024-03-17T08:18:26;13.40;55.50
29431;DHT22;16404;49.902;10.074;2024-03-17T08:21:11;13.60;55.40
29431;DHT22;16404;49.902;10.074;2024-03-17T08:23:55;13.70;54.70
29431;DHT22;16404;49.902;10.074;2024-03-17T08:27:15;14.00;54.70
29431;DHT22;16404;49.902;10.074;2024-03-17T08:30:05;14.20;54.50
29431;DHT22;16404;49.902;10.074;2024-03-17T08:32:49;14.50;54.10
29431;DHT22;16404;49.902;10.074;2024-03-17T08:35:34;14.70;53.80
29431;DHT22;16404;49.902;10.074;2024-03-17T08:38:22;14.90;53.20
29431;DHT22;16404;49.902;10.074;2024-03-17T08:41:09;15.20;52.40
29431;DHT22;16404;49.902;10.074;2024-03-17T08:43:54;15.40;51.20
29431;DHT22;16404;49.902;10.074;2024-03-17T08:46:39;15.50;50.70
29431;DHT22;16404;49.902;10.074;2024-03-17T08:49:23;15.60;50.90
29431;DHT22;16404;49.902;10.074;2024-03-17T08:52:08;15.90;51.30
29431;DHT22;16404;49.902;10.074;2024-03-17T08:54:52;16.00;51.40
29431;DHT22;16404;49.902;10.074;2024-03-17T08:57:37;16.30;51.00
29431;DHT22;16404;49.902;10.074;2024-03-17T09:00:22;16.50;50.00
29431;DHT22;16404;49.902;10.074;2024-03-17T09:03:10;16.70;49.90
29431;DHT22;16404;49.902;10.074;2024-03-17T09:05:57;16.90;49.70
29431;DHT22;16404;49.902;10.074;2024-03-17T09:08:42;17.10;49.30
29431;DHT22;16404;49.902;10.074;2024-03-17T09:11:26;17.20;48.30
29431;DHT22;16404;49.902;10.074;2024-03-17T09:14:12;17.40;47.90
29431;DHT22;16404;49.902;10.074;2024-03-17T09:16:56;17.50;47.30
29431;DHT22;16404;49.902;10.074;2024-03-17T09:19:42;17.60;47.30
29431;DHT22;16404;49.902;10.074;2024-03-17T09:22:27;17.70;46.80
29431;DHT22;16404;49.902;10.074;2024-03-17T09:25:12;17.90;46.20
29431;DHT22;16404;49.902;10.074;2024-03-17T09:27:58;18.30;46.40
29431;DHT22;16404;49.902;10.074;2024-03-17T09:30:47;18.50;45.60
29431;DHT22;16404;49.902;10.074;2024-03-17T09:33:31;18.50;44.00
29431;DHT22;16404;49.902;10.074;2024-03-17T09:36:16;18.50;43.10
29431;DHT22;16404;49.902;10.074;2024-03-17T09:39:01;18.60;43.20
29431;DHT22;16404;49.902;10.074;2024-03-17T09:41:48;18.60;43.30
29431;DHT22;16404;49.902;10.074;2024-03-17T09:44:33;18.50;42.20
29431;DHT22;16404;49.902;10.074;2024-03-17T09:47:20;18.40;41.70
29431;DHT22;16404;49.902;10.074;2024-03-17T09:50:13;18.40;41.00
29431;DHT22;16404;49.902;10.074;2024-03-17T09:52:58;18.30;42.10
29431;DHT22;16404;49.902;10.074;2024-03-17T09:55:43;18.30;41.80
29431;DHT22;16404;49.902;10.074;2024-03-17T09:58:27;18.40;42.50
29431;DHT22;16404;49.902;10.074;2024-03-17T10:01:12;18.40;42.10
29431;DHT22;16404;49.902;10.074;2024-03-17T10:03:57;18.30;42.70
29431;DHT22;16404;49.902;10.074;2024-03-17T10:06:48;18.40;43.10
29431;DHT22;16404;49.902;10.074;2024-03-17T10:09:32;18.50;42.80
29431;DHT22;16404;49.902;10.074;2024-03-17T10:12:27;18.60;41.90
29431;DHT22;16404;49.902;10.074;2024-03-17T10:15:12;18.70;40.30
29431;DHT22;16404;49.902;10.074;2024-03-17T10:17:57;18.70;40.60
29431;DHT22;16404;49.902;10.074;2024-03-17T10:20:41;18.80;41.20
29431;DHT22;16404;49.902;10.074;2024-03-17T10:23:26;18.90;40.50
29431;DHT22;16404;49.902;10.074;2024-03-17T10:26:13;19.00;40.00
29431;DHT22;16404;49.902;10.074;2024-03-17T10:28:59;18.90;40.10
29431;DHT22;16404;49.902;10.074;2024-03-17T10:31:44;18.80;40.30
29431;DHT22;16404;49.902;10.074;2024-03-17T10:34:30;18.80;40.00
29431;DHT22;16404;49.902;10.074;2024-03-17T10:37:20;18.70;40.30
29431;DHT22;16404;49.902;10.074;2024-03-17T10:40:12;18.40;40.00
29431;DHT22;16404;49.902;10.074;2024-03-17T10:42:59;18.30;39.80
29431;DHT22;16404;49.902;10.074;2024-03-17T10:45:44;18.20;39.80
29431;DHT22;16404;49.902;10.074;2024-03-17T10:48:31;18.20;40.40
29431;DHT22;16404;49.902;10.074;2024-03-17T10:51:19;18.10;40.50
29431;DHT22;16404;49.902;10.074;2024-03-17T10:54:03;18.00;40.20
29431;DHT22;16404;49.902;10.074;2024-03-17T10:56:47;18.00;41.20
29431;DHT22;16404;49.902;10.074;2024-03-17T10:59:39;18.00;41.00
29431;DHT22;16404;49.902;10.074;2024-03-17T11:02:27;17.90;41.20
29431;DHT22;16404;49.902;10.074;2024-03-17T11:05:26;17.80;41.10
29431;DHT22;16404;49.902;10.074;2024-03-17T11:08:16;17.60;41.20
29431;DHT22;16404;49.902;10.074;2024-03-17T11:11:00;17.60;41.20
29431;DHT22;16404;49.902;10.074;2024-03-17T11:13:45;17.50;41.80
29431;DHT22;16404;49.902;10.074;2024-03-17T11:16:30;17.50;42.10
29431;DHT22;16404;49.902;10.074;2024-03-17T11:19:15;17.50;42.00
29431;DHT22;16404;49.902;10.074;2024-03-17T11:23:03;17.60;41.80
29431;DHT22;16404;49.902;10.074;2024-03-17T11:31:41;17.50;42.60
29431;DHT22;16404;49.902;10.074;2024-03-17T11:37:41;17.50;42.30
29431;DHT22;16404;49.902;10.074;2024-03-17T11:40:26;17.40;42.00
29431;DHT22;16404;49.902;10.074;2024-03-17T11:43:16;17.40;42.10
29431;DHT22;16404;49.902;10.074;2024-03-17T11:46:01;17.40;41.80
29431;DHT22;16404;49.902;10.074;2024-03-17T11:48:45;17.50;42.40
29431;DHT22;16404;49.902;10.074;2024-03-17T11:51:30;17.50;41.10
29431;DHT22;16404;49.902;10.074;2024-03-17T11:54:22;17.50;40.60
29431;DHT22;16404;49.902;10.074;2024-03-17T11:57:12;17.50;40.40
29431;DHT22;16404;49.902;10.074;2024-03-17T11:59:57;17.50;41.10
29431;DHT22;16404;49.902;10.074;2024-03-17T12:02:41;17.50;41.70
29431;DHT22;16404;49.902;10.074;2024-03-17T12:05:26;17.50;41.40
29431;DHT22;16404;49.902;10.074;2024-03-17T12:08:21;17.50;41.50
29431;DHT22;16404;49.902;10.074;2024-03-17T12:11:19;17.50;41.40
29431;DHT22;16404;49.902;10.074;2024-03-17T12:14:18;17.60;40.70
29431;DHT22;16404;49.902;10.074;2024-03-17T12:17:06;17.60;41.00
29431;DHT22;16404;49.902;10.074;2024-03-17T12:19:54;17.70;40.80
29431;DHT22;16404;49.902;10.074;2024-03-17T12:22:40;17.80;40.60
29431;DHT22;16404;49.902;10.074;2024-03-17T12:25:26;17.80;40.90
29431;DHT22;16404;49.902;10.074;2024-03-17T12:28:16;17.80;41.20
29431;DHT22;16404;49.902;10.074;2024-03-17T12:31:01;17.80;41.60
29431;DHT22;16404;49.902;10.074;2024-03-17T12:33:45;17.90;41.00
29431;DHT22;16404;49.902;10.074;2024-03-17T12:36:30;17.90;41.20
29431;DHT22;16404;49.902;10.074;2024-03-17T12:39:25;18.00;41.10
29431;DHT22;16404;49.902;10.074;2024-03-17T12:42:16;18.00;41.00
29431;DHT22;16404;49.902;10.074;2024-03-17T12:45:01;18.00;41.00
29431;DHT22;16404;49.902;10.074;2024-03-17T12:47:48;18.10;40.90
29431;DHT22;16404;49.902;10.074;2024-03-17T12:50:34;18.10;40.80
29431;DHT22;16404;49.902;10.074;2024-03-17T12:53:18;18.20;40.90
29431;DHT22;16404;49.902;10.074;2024-03-17T12:56:03;18.20;40.70
29431;DHT22;16404;49.902;10.074;2024-03-17T12:59:09;18.20;40.40
29431;DHT22;16404;49.902;10.074;2024-03-17T13:02:27;18.30;40.80
29431;DHT22;16404;49.902;10.074;2024-03-17T13:05:18;18.30;40.60
29431;DHT22;16404;49.902;10.074;2024-03-17T13:08:03;18.40;40.40
29431;DHT22;16404;49.902;10.074;2024-03-17T13:10:48;18.40;40.40
29431;DHT22;16404;49.902;10.074;2024-03-17T13:13:32;18.40;40.60
29431;DHT22;16404;49.902;10.074;2024-03-17T13:16:17;18.40;40.70
29431;DHT22;16404;49.902;10.074;2024-03-17T13:19:01;18.50;40.80
29431;DHT22;16404;49.902;10.074;2024-03-17T13:21:46;18.60;40.70
29431;DHT22;16404;49.902;10.074;2024-03-17T13:24:31;18.60;40.00
29431;DHT22;16404;49.902;10.074;2024-03-17T13:27:15;18.60;39.60
29431;DHT22;16404;49.902;10.074;2024-03-17T13:30:00;18.60;39.30
29431;DHT22;16404;49.902;10.074;2024-03-17T13:32:45;18.60;39.10
29431;DHT22;16404;49.902;10.074;2024-03-17T13:35:30;18.60;39.40
29431;DHT22;16404;49.902;10.074;2024-03-17T13:38:15;18.60;39.60
29431;DHT22;16404;49.902;10.074;2024-03-17T13:41:00;18.70;39.80
29431;DHT22;16404;49.902;10.074;2024-03-17T13:43:44;18.80;39.80
29431;DHT22;16404;49.902;10.074;2024-03-17T13:46:29;18.90;39.50
29431;DHT22;16404;49.902;10.074;2024-03-17T13:49:13;18.90;39.40
29431;DHT22;16404;49.902;10.074;2024-03-17T13:51:58;19.00;39.60
29431;DHT22;16404;49.902;10.074;2024-03-17T13:54:42;19.00;39.10
29431;DHT22;16404;49.902;10.074;2024-03-17T13:57:27;19.00;39.20
29431;DHT22;16404;49.902;10.074;2024-03-17T14:00:12;19.00;39.60
29431;DHT22;16404;49.902;10.074;2024-03-17T14:03:00;19.00;39.20
29431;DHT22;16404;49.902;10.074;2024-03-17T14:05:45;19.10;39.30
29431;DHT22;16404;49.902;10.074;2024-03-17T14:08:29;19.10;39.30
29431;DHT22;16404;49.902;10.074;2024-03-17T14:11:15;19.10;39.60
29431;DHT22;16404;49.902;10.074;2024-03-17T14:14:00;19.10;39.50
29431;DHT22;16404;49.902;10.074;2024-03-17T14:16:45;19.10;39.50
29431;DHT22;16404;49.902;10.074;2024-03-17T14:19:30;19.20;38.90
29431;DHT22;16404;49.902;10.074;2024-03-17T14:22:14;19.20;38.90
29431;DHT22;16404;49.902;10.074;2024-03-17T14:24:59;19.30;39.30
29431;DHT22;16404;49.902;10.074;2024-03-17T14:27:44;19.30;39.30
29431;DHT22;16404;49.902;10.074;2024-03-17T14:30:29;19.30;39.10
29431;DHT22;16404;49.902;10.074;2024-03-17T14:33:14;19.40;39.10
29431;DHT22;16404;49.902;10.074;2024-03-17T14:35:59;19.40;38.60
29431;DHT22;16404;49.902;10.074;2024-03-17T14:38:44;19.40;38.30
29431;DHT22;16404;49.902;10.074;2024-03-17T14:41:29;19.20;38.10
29431;DHT22;16404;49.902;10.074;2024-03-17T14:44:14;19.20;38.10
29431;DHT22;16404;49.902;10.074;2024-03-17T14:46:59;19.20;37.80
29431;DHT22;16404;49.902;10.074;2024-03-17T14:49:44;19.10;38.00
29431;DHT22;16404;49.902;10.074;2024-03-17T14:52:29;19.10;37.90
29431;DHT22;16404;49.902;10.074;2024-03-17T14:55:14;19.00;38.30
29431;DHT22;16404;49.902;10.074;2024-03-17T14:58:01;19.00;37.50
29431;DHT22;16404;49.902;10.074;2024-03-17T15:00:46;19.00;37.90
29431;DHT22;16404;49.902;10.074;2024-03-17T15:03:30;18.90;38.30
29431;DHT22;16404;49.902;10.074;2024-03-17T15:06:15;18.90;38.30
29431;DHT22;16404;49.902;10.074;2024-03-17T15:09:02;18.80;38.30
29431;DHT22;16404;49.902;10.074;2024-03-17T15:11:50;18.80;38.20
29431;DHT22;16404;49.902;10.074;2024-03-17T15:14:35;18.80;38.80
29431;DHT22;16404;49.902;10.074;2024-03-17T15:17:21;18.80;39.00
29431;DHT22;16404;49.902;10.074;2024-03-17T15:20:06;18.70;38.70
29431;DHT22;16404;49.902;10.074;2024-03-17T15:23:05;18.70;38.40
29431;DHT22;16404;49.902;10.074;2024-03-17T15:25:50;18.60;38.30
29431;DHT22;16404;49.902;10.074;2024-03-17T15:28:43;18.60;38.60
29431;DHT22;16404;49.902;10.074;2024-03-17T15:31:30;18.60;38.60
29431;DHT22;16404;49.902;10.074;2024-03-17T15:34:15;18.60;38.60
29431;DHT22;16404;49.902;10.074;2024-03-17T15:36:59;18.50;38.60
29431;DHT22;16404;49.902;10.074;2024-03-17T15:39:44;18.50;38.50
29431;DHT22;16404;49.902;10.074;2024-03-17T15:42:28;18.40;38.70
29431;DHT22;16404;49.902;10.074;2024-03-17T15:45:13;18.40;38.80
29431;DHT22;16404;49.902;10.074;2024-03-17T15:47:58;18.30;38.80
29431;DHT22;16404;49.902;10.074;2024-03-17T15:50:43;18.30;39.00
29431;DHT22;16404;49.902;10.074;2024-03-17T15:53:27;18.30;38.80
29431;DHT22;16404;49.902;10.074;2024-03-17T15:56:12;18.20;38.90
29431;DHT22;16404;49.902;10.074;2024-03-17T15:58:57;18.20;39.50
29431;DHT22;16404;49.902;10.074;2024-03-17T16:01:41;18.10;39.20
29431;DHT22;16404;49.902;10.074;2024-03-17T16:04:26;18.10;39.40
29431;DHT22;16404;49.902;10.074;2024-03-17T16:07:11;18.00;39.40
29431;DHT22;16404;49.902;10.074;2024-03-17T16:09:55;17.90;39.10
29431;DHT22;16404;49.902;10.074;2024-03-17T16:12:40;17.80;39.20
29431;DHT22;16404;49.902;10.074;2024-03-17T16:15:24;17.80;39.30
29431;DHT22;16404;49.902;10.074;2024-03-17T16:18:09;17.80;39.60
29431;DHT22;16404;49.902;10.074;2024-03-17T16:21:00;17.80;39.70
29431;DHT22;16404;49.902;10.074;2024-03-17T16:23:57;17.70;39.50
29431;DHT22;16404;49.902;10.074;2024-03-17T16:26:45;17.70;39.70
29431;DHT22;16404;49.902;10.074;2024-03-17T16:29:32;17.60;39.80
29431;DHT22;16404;49.902;10.074;2024-03-17T16:32:16;17.60;39.90
29431;DHT22;16404;49.902;10.074;2024-03-17T16:35:02;17.50;40.00
29431;DHT22;16404;49.902;10.074;2024-03-17T16:37:47;17.40;40.10
29431;DHT22;16404;49.902;10.074;2024-03-17T16:40:31;17.40;40.50
29431;DHT22;16404;49.902;10.074;2024-03-17T16:43:35;17.30;40.70
29431;DHT22;16404;49.902;10.074;2024-03-17T16:49:32;17.20;41.20
29431;DHT22;16404;49.902;10.074;2024-03-17T16:52:19;17.10;41.10
29431;DHT22;16404;49.902;10.074;2024-03-17T16:55:07;17.10;41.20
29431;DHT22;16404;49.902;10.074;2024-03-17T16:57:53;17.00;41.40
29431;DHT22;16404;49.902;10.074;2024-03-17T17:00:37;17.00;42.30
29431;DHT22;16404;49.902;10.074;2024-03-17T17:03:22;16.90;41.80
29431;DHT22;16404;49.902;10.074;2024-03-17T17:06:07;16.90;41.80
29431;DHT22;16404;49.902;10.074;2024-03-17T17:08:52;16.90;42.00
29431;DHT22;16404;49.902;10.074;2024-03-17T17:11:36;16.80;42.20
29431;DHT22;16404;49.902;10.074;2024-03-17T17:14:21;16.80;42.20
29431;DHT22;16404;49.902;10.074;2024-03-17T17:17:07;16.70;42.10
29431;DHT22;16404;49.902;10.074;2024-03-17T17:19:54;16.70;42.10
29431;DHT22;16404;49.902;10.074;2024-03-17T17:22:38;16.60;42.20
29431;DHT22;16404;49.902;10.074;2024-03-17T17:25:23;16.50;42.30
29431;DHT22;16404;49.902;10.074;2024-03-17T17:28:07;16.50;42.40
29431;DHT22;16404;49.902;10.074;2024-03-17T17:30:52;16.40;42.50
29431;DHT22;16404;49.902;10.074;2024-03-17T17:33:37;16.30;42.50